Time;durP1;ratioP1;P1;durP2;ratioP2;P2;SDS_P1;SDS_P2;PMS_P1;PMS_P2;Temp;Humidity;BMP_temperature;BMP_pressure;BME280_temperature;BME280_humidity;BME280_pressure;Samples;Min_cycle;Max_cycle;Signal;HPM_P1;HPM_P2
2023/09/22 00:00:43;;;;;;;3.67;1.50;;;14.30;99.90;;;;;;5074977;28;20488;-53
2023/09/22 00:03:10;;;;;;;3.53;1.70;;;14.30;99.90;;;;;;5073626;28;20048;-53
2023/09/22 00:05:36;;;;;;;4.15;1.60;;;14.30;99.90;;;;;;5073363;28;20202;-49
2023/09/22 00:08:03;;;;;;;4.50;1.50;;;14.40;99.90;;;;;;5073551;28;20119;-54
2023/09/22 00:10:29;;;;;;;2.30;1.40;;;14.40;99.90;;;;;;5073178;28;20166;-50
2023/09/22 00:12:55;;;;;;;5.15;2.40;;;14.40;99.90;;;;;;5070871;28;20535;-50
2023/09/22 00:15:21;;;;;;;3.35;2.00;;;14.40;99.90;;;;;;5072863;28;20040;-52
2023/09/22 00:17:47;;;;;;;3.67;1.80;;;14.50;99.90;;;;;;5071974;28;20036;-52
2023/09/22 00:20:15;;;;;;;2.25;1.85;;;14.50;99.90;;;;;;5073139;28;20043;-51
2023/09/22 00:22:42;;;;;;;5.25;2.30;;;14.50;99.90;;;;;;5072753;28;20089;-52
2023/09/22 00:25:12;;;;;;;3.97;2.80;;;14.40;99.90;;;;;;5073020;28;20055;-52
2023/09/22 00:27:38;;;;;;;2.75;2.35;;;14.50;99.90;;;;;;5072922;28;20044;-49
2023/09/22 00:30:05;;;;;;;3.88;2.42;;;14.40;99.90;;;;;;5071263;28;20029;-50
2023/09/22 00:32:31;;;;;;;3.70;2.72;;;14.50;99.90;;;;;;5072813;28;20040;-51
2023/09/22 00:34:56;;;;;;;3.20;2.85;;;14.40;99.90;;;;;;5073990;28;20032;-53
2023/09/22 00:37:23;;;;;;;5.75;3.38;;;14.40;99.90;;;;;;5093005;28;20504;-52
2023/09/22 00:39:48;;;;;;;3.92;3.10;;;14.50;99.90;;;;;;5087492;28;20036;-52
2023/09/22 00:42:14;;;;;;;4.18;3.42;;;14.40;99.90;;;;;;5092707;28;20039;-54
2023/09/22 00:44:40;;;;;;;4.00;3.50;;;14.50;99.90;;;;;;5092501;28;20444;-51
2023/09/22 00:47:08;;;;;;;4.75;4.25;;;14.50;99.90;;;;;;5073357;28;20032;-54
2023/09/22 00:49:35;;;;;;;6.43;4.88;;;14.50;99.90;;;;;;5072500;28;20048;-53
2023/09/22 00:52:02;;;;;;;8.18;5.90;;;14.40;99.90;;;;;;5072128;28;20029;-53
2023/09/22 00:54:28;;;;;;;8.82;6.22;;;14.50;99.90;;;;;;5086227;28;20490;-50
2023/09/22 00:56:54;;;;;;;8.40;6.35;;;14.40;99.90;;;;;;5092773;28;20085;-53
2023/09/22 00:59:21;;;;;;;10.10;6.20;;;14.40;99.90;;;;;;5092492;28;20046;-53
2023/09/22 01:01:47;;;;;;;10.20;6.70;;;14.40;99.90;;;;;;5092377;28;20436;-51
2023/09/22 01:04:13;;;;;;;12.63;7.03;;;14.50;99.90;;;;;;5091912;28;20036;-54
2023/09/22 01:06:39;;;;;;;10.90;7.50;;;14.50;99.90;;;;;;5092214;28;20036;-53
2023/09/22 01:09:09;;;;;;;10.40;7.15;;;14.50;99.90;;;;;;5090994;28;20031;-50
2023/09/22 01:11:35;;;;;;;10.48;7.90;;;14.40;99.90;;;;;;5087443;28;20109;-52
2023/09/22 01:14:02;;;;;;;8.75;7.40;;;14.40;99.90;;;;;;5092482;28;20115;-53
2023/09/22 01:16:32;;;;;;;11.43;7.28;;;14.40;99.90;;;;;;5078207;28;20048;-52
2023/09/22 01:18:58;;;;;;;11.60;8.68;;;14.40;99.90;;;;;;5064315;28;20036;-53
2023/09/22 01:21:34;;;;;;;12.75;9.30;;;14.40;99.90;;;;;;5076948;28;20065;-50
2023/09/22 01:24:00;;;;;;;13.93;10.23;;;14.40;99.90;;;;;;5092763;28;20040;-52
2023/09/22 01:26:27;;;;;;;12.38;10.40;;;14.40;99.90;;;;;;5092129;28;20413;-50
2023/09/22 01:28:52;;;;;;;12.80;10.48;;;14.40;99.90;;;;;;5092144;28;20032;-53
2023/09/22 01:31:18;;;;;;;15.60;11.18;;;14.40;99.90;;;;;;5092013;28;20477;-51
2023/09/22 01:33:45;;;;;;;14.95;11.10;;;14.50;99.90;;;;;;5091707;28;20153;-51
2023/09/22 01:36:13;;;;;;;15.30;11.80;;;14.40;99.90;;;;;;5091900;28;20082;-53
2023/09/22 01:38:39;;;;;;;18.75;13.00;;;14.50;99.90;;;;;;5091726;28;20047;-50
2023/09/22 01:41:06;;;;;;;17.00;12.65;;;14.40;99.90;;;;;;5090981;28;20032;-53
2023/09/22 01:43:32;;;;;;;19.50;13.35;;;14.30;99.90;;;;;;5091826;28;20032;-52
2023/09/22 01:45:58;;;;;;;19.42;13.38;;;14.50;99.90;;;;;;5090692;28;20051;-52
2023/09/22 01:48:24;;;;;;;18.20;14.70;;;14.50;99.90;;;;;;5091557;28;20546;-51
2023/09/22 01:50:50;;;;;;;20.23;14.32;;;14.40;99.90;;;;;;5091710;28;20115;-51
2023/09/22 01:53:15;;;;;;;22.58;16.05;;;14.40;99.90;;;;;;5091407;28;20119;-50
2023/09/22 01:55:41;;;;;;;20.90;14.98;;;14.50;99.90;;;;;;5091699;28;20040;-53
2023/09/22 01:58:08;;;;;;;30.40;16.15;;;14.50;99.90;;;;;;5091756;28;20087;-51
2023/09/22 02:00:35;;;;;;;21.25;16.02;;;14.50;99.90;;;;;;5091568;28;20432;-54
2023/09/22 02:03:01;;;;;;;22.45;15.52;;;14.50;99.90;;;;;;5090144;28;20402;-53
2023/09/22 02:05:27;;;;;;;24.85;16.33;;;14.50;99.90;;;;;;5091499;28;20044;-53
2023/09/22 02:07:53;;;;;;;27.77;17.35;;;14.40;99.90;;;;;;5091220;28;20047;-54
2023/09/22 02:10:19;;;;;;;24.88;17.73;;;14.60;99.90;;;;;;5090420;28;20052;-54
2023/09/22 02:12:45;;;;;;;25.63;18.50;;;14.50;99.90;;;;;;5091133;28;20063;-52
2023/09/22 02:15:12;;;;;;;23.83;17.40;;;14.50;99.90;;;;;;5089834;28;20051;-55
2023/09/22 02:17:42;;;;;;;31.73;19.05;;;14.50;99.90;;;;;;5094121;28;20440;-52
2023/09/22 02:20:18;;;;;;;24.98;19.42;;;14.40;99.90;;;;;;5065040;28;20086;-54
2023/09/22 02:22:48;;;;;;;27.10;20.92;;;14.40;99.90;;;;;;5075300;28;20068;-54
2023/09/22 02:25:15;;;;;;;28.42;20.35;;;14.40;99.90;;;;;;5075511;28;20493;-50
2023/09/22 02:27:41;;;;;;;25.05;20.75;;;14.50;99.90;;;;;;5090534;28;20032;-54
2023/09/22 02:30:08;;;;;;;27.65;21.45;;;14.40;99.90;;;;;;5095493;28;20043;-52
2023/09/22 02:32:34;;;;;;;26.88;21.27;;;14.50;99.90;;;;;;5095062;28;20040;-54
2023/09/22 02:35:00;;;;;;;29.58;20.55;;;14.50;99.90;;;;;;5093999;28;20052;-52
2023/09/22 02:37:25;;;;;;;29.73;21.75;;;14.50;99.90;;;;;;5094932;28;20123;-50
2023/09/22 02:39:51;;;;;;;25.25;20.30;;;14.60;99.90;;;;;;5088415;28;20037;-54
2023/09/22 02:42:17;;;;;;;28.73;21.13;;;14.50;99.90;;;;;;5089865;28;20036;-52
2023/09/22 02:44:42;;;;;;;27.42;21.08;;;14.50;99.90;;;;;;5090196;28;20066;-53
2023/09/22 02:47:08;;;;;;;26.08;20.83;;;14.50;99.90;;;;;;5088295;28;20040;-52
2023/09/22 02:49:34;;;;;;;25.73;21.00;;;14.50;99.90;;;;;;5094745;28;20070;-53
2023/09/22 02:52:00;;;;;;;25.67;20.35;;;14.60;99.90;;;;;;5094987;28;20152;-53
2023/09/22 02:54:25;;;;;;;28.80;21.75;;;14.60;99.90;;;;;;5094810;28;20032;-52
2023/09/22 02:56:51;;;;;;;28.60;21.38;;;14.60;99.90;;;;;;5094566;28;20082;-53
2023/09/22 02:59:19;;;;;;;29.55;22.58;;;14.50;99.90;;;;;;5094559;28;20028;-53
2023/09/22 03:01:44;;;;;;;28.55;22.77;;;14.50;99.90;;;;;;5094599;28;20432;-52
2023/09/22 03:04:10;;;;;;;30.85;21.27;;;14.60;99.90;;;;;;5094426;28;20027;-52
2023/09/22 03:06:37;;;;;;;28.00;21.95;;;14.60;99.90;;;;;;5093395;28;20051;-53
2023/09/22 03:09:09;;;;;;;26.33;21.60;;;14.60;99.90;;;;;;5093795;28;20040;-53
2023/09/22 03:11:36;;;;;;;27.08;21.60;;;14.50;99.90;;;;;;5094516;28;20043;-52
2023/09/22 03:14:03;;;;;;;32.75;22.40;;;14.50;99.90;;;;;;5094373;28;20036;-53
2023/09/22 03:16:29;;;;;;;30.17;21.75;;;14.50;99.90;;;;;;5094380;28;20115;-51
2023/09/22 03:18:55;;;;;;;28.20;22.60;;;14.50;99.90;;;;;;5094323;28;20036;-54
2023/09/22 03:21:22;;;;;;;26.70;20.38;;;14.40;99.90;;;;;;5060188;28;20044;-50
2023/09/22 03:23:54;;;;;;;24.25;19.17;;;14.40;99.90;;;;;;5074099;28;20051;-53
2023/09/22 03:26:21;;;;;;;28.40;21.38;;;14.30;99.90;;;;;;5073777;28;20041;-53
2023/09/22 03:28:48;;;;;;;26.77;20.42;;;14.30;99.90;;;;;;5073611;28;20090;-52
2023/09/22 03:31:16;;;;;;;26.73;19.67;;;14.40;99.90;;;;;;5093080;28;20111;-52
2023/09/22 03:33:43;;;;;;;27.88;19.45;;;14.20;99.90;;;;;;5094050;28;20059;-52
2023/09/22 03:36:12;;;;;;;22.73;19.45;;;14.40;99.90;;;;;;5094242;28;20050;-48
2023/09/22 03:38:43;;;;;;;25.65;20.27;;;14.30;99.90;;;;;;5093889;28;20486;-54
2023/09/22 03:41:08;;;;;;;28.05;20.13;;;14.40;99.90;;;;;;5082041;28;20040;-49
2023/09/22 03:43:34;;;;;;;25.70;19.50;;;14.40;99.90;;;;;;5093906;28;20047;-53
2023/09/22 03:46:01;;;;;;;24.98;19.90;;;14.30;99.90;;;;;;5093798;28;20036;-50
2023/09/22 03:48:27;;;;;;;26.80;19.67;;;14.30;99.90;;;;;;5093617;28;20508;-49
2023/09/22 03:50:53;;;;;;;23.08;19.23;;;14.30;99.90;;;;;;5093728;28;20048;-53
2023/09/22 03:53:19;;;;;;;23.33;17.88;;;14.30;99.90;;;;;;5093820;28;20375;-53
2023/09/22 03:55:45;;;;;;;28.55;19.00;;;14.30;99.90;;;;;;5093570;28;20047;-53
2023/09/22 03:58:11;;;;;;;24.85;19.17;;;14.20;99.90;;;;;;5093627;28;20107;-49
2023/09/22 04:00:37;;;;;;;20.15;17.58;;;14.20;99.90;;;;;;5093385;28;20115;-52
2023/09/22 04:03:09;;;;;;;22.63;17.73;;;14.20;99.90;;;;;;5093537;28;20134;-52
2023/09/22 04:05:36;;;;;;;24.27;17.83;;;14.20;99.90;;;;;;5093670;28;20115;-53
2023/09/22 04:08:01;;;;;;;21.17;16.92;;;14.10;99.90;;;;;;5093388;28;20032;-52
2023/09/22 04:10:27;;;;;;;26.85;17.77;;;14.20;99.90;;;;;;5093103;28;20035;-50
2023/09/22 04:12:53;;;;;;;18.63;16.60;;;14.10;99.90;;;;;;5093001;28;20127;-52
2023/09/22 04:15:19;;;;;;;18.45;15.32;;;14.20;99.90;;;;;;5092859;28;20047;-54
2023/09/22 04:17:46;;;;;;;22.13;16.10;;;14.10;99.90;;;;;;5093242;28;20039;-53
2023/09/22 04:20:13;;;;;;;22.05;17.33;;;14.10;99.90;;;;;;5082584;28;20525;-50
2023/09/22 04:22:39;;;;;;;22.98;16.50;;;14.20;99.90;;;;;;5078620;28;20048;-52
2023/09/22 04:25:11;;;;;;;19.08;15.52;;;14.00;99.90;;;;;;5092825;28;20486;-51
2023/09/22 04:27:44;;;;;;;22.45;17.13;;;14.00;99.90;;;;;;5093147;28;20066;-51
2023/09/22 04:30:16;;;;;;;18.60;15.02;;;14.10;99.90;;;;;;5092892;28;20036;-52
2023/09/22 04:32:43;;;;;;;18.90;13.65;;;14.10;99.90;;;;;;5093095;28;20032;-52
2023/09/22 04:35:09;;;;;;;22.52;15.95;;;14.10;99.90;;;;;;5092853;28;20117;-53
2023/09/22 04:37:35;;;;;;;19.27;13.95;;;14.10;99.90;;;;;;5091663;28;20480;-53
2023/09/22 04:40:03;;;;;;;24.75;14.65;;;14.10;99.90;;;;;;5090721;28;20068;-52
2023/09/22 04:42:29;;;;;;;20.83;15.27;;;14.00;99.90;;;;;;5089605;28;20048;-52
2023/09/22 04:44:55;;;;;;;23.75;15.80;;;14.10;99.90;;;;;;5092854;28;20093;-51
2023/09/22 04:47:21;;;;;;;25.08;15.98;;;14.00;99.90;;;;;;5092977;28;20036;-51
2023/09/22 04:49:46;;;;;;;22.65;15.50;;;14.10;99.90;;;;;;5091368;28;20036;-51
2023/09/22 04:52:12;;;;;;;23.60;16.30;;;14.10;99.90;;;;;;5092480;28;20054;-54
2023/09/22 04:54:40;;;;;;;24.98;17.20;;;14.20;99.90;;;;;;5092664;28;20394;-53
2023/09/22 04:57:05;;;;;;;26.05;18.52;;;14.10;99.90;;;;;;5092783;28;20432;-48
2023/09/22 04:59:31;;;;;;;28.30;19.25;;;14.10;99.90;;;;;;5092552;28;20028;-50
2023/09/22 05:01:57;;;;;;;31.65;20.40;;;14.10;99.90;;;;;;5092083;28;20415;-50
2023/09/22 05:04:23;;;;;;;26.95;18.73;;;14.10;99.90;;;;;;5092225;28;20133;-49
2023/09/22 05:06:50;;;;;;;29.48;19.15;;;14.10;99.90;;;;;;5092344;28;20044;-52
2023/09/22 05:09:16;;;;;;;27.88;18.65;;;14.00;99.90;;;;;;5090027;28;20047;-50
2023/09/22 05:11:41;;;;;;;27.92;19.25;;;14.00;99.90;;;;;;5079825;28;20044;-52
2023/09/22 05:14:07;;;;;;;27.98;19.48;;;14.00;99.90;;;;;;5091824;28;20036;-52
2023/09/22 05:16:33;;;;;;;27.58;19.73;;;14.00;99.90;;;;;;5063841;28;20044;-53
2023/09/22 05:18:59;;;;;;;26.98;19.58;;;14.00;99.90;;;;;;5091710;28;20055;-53
2023/09/22 05:21:25;;;;;;;26.52;19.38;;;13.90;99.90;;;;;;5071862;28;20032;-52
2023/09/22 05:23:51;;;;;;;30.65;20.35;;;14.00;99.90;;;;;;5070860;28;20110;-53
2023/09/22 05:26:17;;;;;;;28.05;20.02;;;14.00;99.90;;;;;;5071408;28;20036;-49
2023/09/22 05:28:43;;;;;;;29.35;19.02;;;13.90;99.90;;;;;;5071868;28;20037;-50
2023/09/22 05:31:09;;;;;;;30.20;19.58;;;13.90;99.90;;;;;;5071916;28;20475;-53
2023/09/22 05:33:37;;;;;;;27.30;18.85;;;13.80;99.90;;;;;;5071663;28;20037;-50
2023/09/22 05:36:05;;;;;;;24.13;19.42;;;13.80;99.90;;;;;;5071523;28;20040;-53
2023/09/22 05:38:31;;;;;;;22.95;18.63;;;13.80;99.90;;;;;;5071568;28;20040;-48
2023/09/22 05:40:56;;;;;;;26.42;19.23;;;13.80;99.90;;;;;;5087387;28;20128;-50
2023/09/22 05:43:22;;;;;;;27.17;19.50;;;13.80;99.90;;;;;;5091722;28;20059;-52
2023/09/22 05:45:55;;;;;;;27.80;19.48;;;13.80;99.90;;;;;;5091962;28;20044;-50
2023/09/22 05:48:21;;;;;;;26.02;19.55;;;13.80;99.90;;;;;;5091632;28;20067;-51
2023/09/22 05:50:57;;;;;;;26.13;19.35;;;13.80;99.90;;;;;;5091506;28;20482;-53
2023/09/22 05:53:27;;;;;;;28.63;20.42;;;13.80;99.90;;;;;;5065331;28;20039;-53
2023/09/22 05:56:07;;;;;;;30.55;20.83;;;13.80;99.90;;;;;;5091714;28;20047;-50
2023/09/22 05:58:37;;;;;;;28.08;19.77;;;13.70;99.90;;;;;;5066223;28;20046;-50
2023/09/22 06:01:11;;;;;;;26.33;20.15;;;13.70;99.90;;;;;;5091729;28;20068;-51
2023/09/22 06:03:37;;;;;;;30.23;20.30;;;13.80;99.90;;;;;;5091496;28;20378;-51
2023/09/22 06:06:15;;;;;;;29.13;21.17;;;13.80;99.90;;;;;;5091497;28;20112;-50
2023/09/22 06:08:44;;;;;;;31.60;21.65;;;13.80;99.90;;;;;;5091525;28;20038;-47
2023/09/22 06:11:10;;;;;;;30.83;21.27;;;13.80;99.90;;;;;;5091262;28;20028;-48
2023/09/22 06:13:37;;;;;;;32.67;22.55;;;13.80;99.90;;;;;;5091126;28;20040;-47
2023/09/22 06:16:04;;;;;;;32.50;22.08;;;13.80;99.90;;;;;;5091610;28;20422;-46
2023/09/22 06:18:30;;;;;;;28.77;22.58;;;13.80;99.90;;;;;;5091282;28;20044;-51
2023/09/22 06:20:56;;;;;;;33.88;23.00;;;13.80;99.90;;;;;;5074585;28;20044;-48
2023/09/22 06:23:25;;;;;;;34.83;22.95;;;13.80;99.90;;;;;;5071275;28;20036;-47
2023/09/22 06:25:54;;;;;;;34.35;24.58;;;13.80;99.90;;;;;;5070858;28;20112;-47
2023/09/22 06:28:20;;;;;;;35.55;24.20;;;13.80;99.90;;;;;;5071052;28;20108;-48
2023/09/22 06:30:46;;;;;;;29.63;23.02;;;13.80;99.90;;;;;;5071230;28;20032;-47
2023/09/22 06:33:16;;;;;;;28.90;22.17;;;13.80;99.90;;;;;;5070973;28;20069;-49
2023/09/22 06:35:45;;;;;;;33.70;24.10;;;13.80;99.90;;;;;;5071318;28;20093;-47
2023/09/22 06:38:11;;;;;;;32.85;24.13;;;13.80;99.90;;;;;;5069897;28;20041;-48
2023/09/22 06:40:37;;;;;;;35.35;23.67;;;13.80;99.90;;;;;;5070822;28;20055;-47
2023/09/22 06:43:07;;;;;;;31.35;23.15;;;13.80;99.90;;;;;;5070810;28;20048;-48
2023/09/22 06:45:35;;;;;;;33.45;23.20;;;13.80;99.90;;;;;;5071086;28;20041;-47
2023/09/22 06:48:05;;;;;;;33.23;23.00;;;13.80;99.90;;;;;;5070766;28;20055;-48
2023/09/22 06:50:34;;;;;;;32.17;22.25;;;13.80;99.90;;;;;;5070919;28;20753;-48
2023/09/22 06:52:59;;;;;;;33.65;23.42;;;13.90;99.90;;;;;;5071050;28;20596;-48
2023/09/22 06:55:25;;;;;;;32.28;22.20;;;13.90;99.90;;;;;;5069714;28;20040;-49
2023/09/22 06:57:52;;;;;;;34.63;22.67;;;13.80;99.90;;;;;;5071071;28;20044;-50
2023/09/22 07:00:18;;;;;;;28.20;22.40;;;13.90;99.90;;;;;;5070787;28;20463;-48
2023/09/22 07:02:47;;;;;;;30.45;21.63;;;14.00;99.90;;;;;;5071746;28;20066;-46
2023/09/22 07:05:13;;;;;;;29.15;21.58;;;13.90;99.90;;;;;;5074264;28;20041;-48
2023/09/22 07:07:40;;;;;;;30.45;21.00;;;14.00;99.90;;;;;;5079210;28;20047;-47
2023/09/22 07:10:13;;;;;;;29.63;19.50;;;14.00;99.90;;;;;;5094834;28;20038;-48
2023/09/22 07:12:39;;;;;;;27.10;19.23;;;14.00;99.90;;;;;;5079051;28;20464;-49
2023/09/22 07:15:07;;;;;;;27.50;18.05;;;14.00;99.90;;;;;;5084437;28;20115;-47
2023/09/22 07:17:33;;;;;;;28.35;18.50;;;14.00;99.90;;;;;;5090973;28;20055;-47
2023/09/22 07:20:08;;;;;;;24.83;18.30;;;14.10;99.90;;;;;;5085497;28;20483;-49
2023/09/22 07:22:34;;;;;;;22.83;17.02;;;14.10;99.90;;;;;;5094260;28;20043;-47
2023/09/22 07:25:00;;;;;;;26.15;16.83;;;14.00;99.90;;;;;;5093213;28;20056;-48
2023/09/22 07:27:27;;;;;;;22.02;16.38;;;14.00;99.90;;;;;;5094252;28;20035;-49
2023/09/22 07:29:52;;;;;;;22.80;16.20;;;14.00;99.90;;;;;;5094191;28;20066;-48
2023/09/22 07:32:19;;;;;;;20.17;14.27;;;14.10;99.90;;;;;;5094292;28;20036;-47
2023/09/22 07:34:45;;;;;;;23.40;14.80;;;14.10;99.90;;;;;;5093035;28;20040;-46
2023/09/22 07:37:13;;;;;;;22.38;15.18;;;14.00;99.90;;;;;;5092673;28;20050;-50
2023/09/22 07:39:38;;;;;;;22.63;14.77;;;14.10;99.90;;;;;;5094042;28;20123;-48
2023/09/22 07:42:05;;;;;;;21.80;16.23;;;14.10;99.90;;;;;;5092661;28;20130;-49
2023/09/22 07:44:31;;;;;;;24.08;14.75;;;14.10;99.90;;;;;;5093885;28;20036;-47
2023/09/22 07:46:58;;;;;;;24.80;16.77;;;14.10;99.90;;;;;;5093807;28;20039;-53
2023/09/22 07:49:25;;;;;;;21.48;15.18;;;14.10;99.90;;;;;;5093761;28;20044;-48
2023/09/22 07:51:51;;;;;;;21.13;15.05;;;14.10;99.90;;;;;;5093589;28;20040;-49
2023/09/22 07:54:18;;;;;;;20.30;15.40;;;14.10;99.90;;;;;;5093669;28;20466;-47
2023/09/22 07:56:46;;;;;;;21.95;15.00;;;14.10;99.90;;;;;;5093516;28;20105;-48
2023/09/22 07:59:16;;;;;;;22.38;14.73;;;14.10;99.90;;;;;;5093873;28;20078;-50
2023/09/22 08:01:43;;;;;;;21.55;14.82;;;14.20;99.90;;;;;;5093570;28;20047;-51
2023/09/22 08:04:12;;;;;;;21.20;15.00;;;14.20;99.90;;;;;;5092189;28;20494;-47
2023/09/22 08:06:38;;;;;;;24.27;14.70;;;14.10;99.90;;;;;;5093512;28;20072;-49
2023/09/22 08:09:04;;;;;;;21.63;13.88;;;14.10;99.90;;;;;;5093667;28;20052;-46
2023/09/22 08:11:30;;;;;;;24.33;15.05;;;14.10;99.90;;;;;;5093056;28;20474;-52
2023/09/22 08:13:58;;;;;;;18.35;14.02;;;14.10;99.90;;;;;;5092383;28;20052;-48
2023/09/22 08:16:24;;;;;;;18.50;13.15;;;14.10;99.90;;;;;;5092876;28;20044;-48
2023/09/22 08:18:50;;;;;;;18.55;14.23;;;14.10;99.90;;;;;;5093152;28;20111;-51
2023/09/22 08:21:16;;;;;;;19.35;12.93;;;14.20;99.90;;;;;;5073761;28;20119;-51
2023/09/22 08:23:42;;;;;;;16.60;13.05;;;14.20;99.90;;;;;;5072997;28;20072;-49
2023/09/22 08:26:08;;;;;;;19.63;13.10;;;14.30;99.90;;;;;;5072773;28;20079;-48
2023/09/22 08:28:34;;;;;;;16.80;13.32;;;14.40;99.90;;;;;;5073044;28;20032;-48
2023/09/22 08:31:00;;;;;;;18.10;11.15;;;14.50;99.90;;;;;;5072935;28;20040;-49
2023/09/22 08:33:26;;;;;;;18.65;12.80;;;14.50;99.90;;;;;;5074840;28;20036;-47
2023/09/22 08:35:52;;;;;;;19.38;12.80;;;14.50;99.90;;;;;;5092956;28;20127;-46
2023/09/22 08:38:21;;;;;;;16.15;11.20;;;14.60;99.90;;;;;;5092727;28;20127;-48
2023/09/22 08:40:47;;;;;;;21.35;12.88;;;14.50;99.90;;;;;;5093122;28;20039;-49
2023/09/22 08:43:14;;;;;;;15.63;12.30;;;14.60;99.90;;;;;;5092778;28;20047;-47
2023/09/22 08:45:40;;;;;;;18.33;11.38;;;14.60;99.90;;;;;;5092620;28;20047;-48
2023/09/22 08:48:07;;;;;;;15.88;10.20;;;14.50;99.90;;;;;;5092901;28;20078;-47
2023/09/22 08:50:32;;;;;;;15.85;11.00;;;14.50;99.90;;;;;;5092517;28;20474;-48
2023/09/22 08:52:58;;;;;;;15.57;11.30;;;14.60;99.90;;;;;;5092751;28;20040;-49
2023/09/22 08:55:25;;;;;;;17.40;10.93;;;14.60;99.90;;;;;;5092381;28;20036;-50
2023/09/22 08:57:53;;;;;;;14.88;9.55;;;14.60;99.90;;;;;;5092644;28;20448;-50
2023/09/22 09:00:21;;;;;;;16.30;9.60;;;14.60;99.90;;;;;;5092418;28;20051;-49
2023/09/22 09:02:48;;;;;;;15.55;9.80;;;14.70;99.90;;;;;;5092538;28;20046;-47
2023/09/22 09:05:30;;;;;;;11.50;8.90;;;14.80;99.90;;;;;;5092365;28;20047;-48
2023/09/22 09:08:16;;;;;;;11.93;7.68;;;14.90;99.90;;;;;;5092432;28;20111;-49
2023/09/22 09:10:43;;;;;;;11.25;7.53;;;15.10;99.90;;;;;;5092104;28;20068;-50
2023/09/22 09:13:19;;;;;;;13.93;6.47;;;15.40;99.90;;;;;;5092073;28;20048;-50
2023/09/22 09:15:50;;;;;;;12.65;5.70;;;15.60;99.90;;;;;;5092244;28;20040;-50
2023/09/22 09:18:24;;;;;;;6.38;5.30;;;15.60;99.90;;;;;;5092224;28;20044;-51
2023/09/22 09:21:05;;;;;;;8.00;5.22;;;15.60;99.90;;;;;;5081166;28;20040;-47
2023/09/22 09:23:31;;;;;;;11.57;5.38;;;15.60;99.90;;;;;;5092414;28;20055;-49
2023/09/22 09:25:57;;;;;;;7.28;5.13;;;15.50;99.90;;;;;;5091866;28;20561;-53
2023/09/22 09:28:24;;;;;;;8.38;5.30;;;15.50;99.90;;;;;;5091982;28;20486;-50
2023/09/22 09:30:57;;;;;;;9.10;4.97;;;15.60;99.90;;;;;;5092241;28;20040;-49
2023/09/22 09:33:32;;;;;;;8.20;5.50;;;15.70;99.90;;;;;;5091689;28;20046;-50
2023/09/22 09:35:58;;;;;;;9.85;4.38;;;15.80;99.90;;;;;;5092155;28;20043;-50
2023/09/22 09:38:27;;;;;;;10.07;5.45;;;15.80;99.90;;;;;;5091596;28;20044;-49
2023/09/22 09:40:54;;;;;;;6.72;4.85;;;15.80;99.90;;;;;;5092159;28;20054;-52
2023/09/22 09:43:21;;;;;;;7.63;4.38;;;15.80;99.90;;;;;;5091917;28;20036;-50
2023/09/22 09:45:56;;;;;;;6.05;4.15;;;15.70;99.90;;;;;;5091589;28;20043;-50
2023/09/22 09:48:23;;;;;;;5.30;3.40;;;15.70;99.90;;;;;;5091970;28;20626;-51
2023/09/22 09:50:54;;;;;;;6.97;3.72;;;15.60;99.90;;;;;;5090517;28;20097;-52
2023/09/22 09:53:28;;;;;;;8.85;3.17;;;15.50;99.90;;;;;;5091885;28;20039;-50
2023/09/22 09:55:59;;;;;;;4.35;3.25;;;15.50;99.90;;;;;;5091916;28;20042;-51
2023/09/22 09:58:32;;;;;;;4.93;2.88;;;15.50;99.90;;;;;;5091509;28;20509;-49
2023/09/22 10:01:00;;;;;;;6.72;2.72;;;15.40;99.90;;;;;;5091874;28;20051;-50
2023/09/22 10:03:27;;;;;;;4.85;2.45;;;15.40;99.90;;;;;;5090442;28;20115;-49
2023/09/22 10:05:57;;;;;;;3.67;1.70;;;15.40;99.90;;;;;;5091618;28;20036;-48
2023/09/22 10:08:25;;;;;;;4.60;1.75;;;15.50;99.90;;;;;;5091336;28;20040;-53
2023/09/22 10:10:54;;;;;;;5.67;1.60;;;15.60;99.90;;;;;;5091716;28;20521;-51
2023/09/22 10:13:20;;;;;;;3.63;1.40;;;15.70;99.90;;;;;;5091128;28;20449;-48
2023/09/22 10:16:00;;;;;;;4.82;1.50;;;15.70;99.90;;;;;;5091622;28;20040;-53
2023/09/22 10:18:45;;;;;;;;;;;15.80;99.90;;;;;;5091950;28;20046;-50
2023/09/22 10:21:30;;;;;;;4.22;1.60;;;15.90;99.90;;;;;;5072527;28;19916;-49
2023/09/22 10:24:17;;;;;;;2.20;1.33;;;16.20;99.90;;;;;;5071067;28;20048;-49
2023/09/22 10:27:14;;;;;;;3.35;1.85;;;16.30;99.90;;;;;;5059152;28;20490;-52
2023/09/22 10:29:45;;;;;;;2.40;1.50;;;16.50;99.90;;;;;;5069350;28;20064;-49
2023/09/22 10:34:48;;;;;;;2.75;1.60;;;16.90;99.90;;;;;;5082513;28;20410;-50
2023/09/22 10:37:18;;;;;;;3.70;1.67;;;16.90;99.90;;;;;;5091948;28;20063;-49
2023/09/22 10:39:55;;;;;;;5.28;1.73;;;17.00;99.90;;;;;;5094999;28;20044;-50
2023/09/22 10:42:22;;;;;;;3.30;1.95;;;17.10;99.90;;;;;;5095128;28;20035;-48
2023/09/22 10:44:55;;;;;;;3.15;1.27;;;17.10;99.90;;;;;;5094971;28;20043;-54
2023/09/22 10:47:21;;;;;;;4.32;1.25;;;17.00;99.90;;;;;;5095216;28;20036;-52
2023/09/22 10:49:47;;;;;;;2.85;1.60;;;16.90;99.90;;;;;;5094897;28;20088;-51
2023/09/22 10:52:14;;;;;;;1.75;1.15;;;16.80;99.90;;;;;;5095052;28;20039;-49
2023/09/22 10:54:43;;;;;;;3.22;1.13;;;16.70;99.90;;;;;;5094759;28;20036;-49
2023/09/22 10:57:23;;;;;;;3.90;1.52;;;16.70;99.90;;;;;;5095150;28;20039;-49
2023/09/22 10:59:48;;;;;;;3.10;1.58;;;16.90;99.90;;;;;;5094981;28;20127;-49
2023/09/22 11:02:25;;;;;;;1.77;1.20;;;16.90;99.90;;;;;;5093556;28;20161;-50
2023/09/22 11:04:51;;;;;;;1.45;1.33;;;16.80;99.90;;;;;;5094503;28;20048;-52
2023/09/22 11:07:32;;;;;;;2.90;1.90;;;16.70;99.90;;;;;;5094638;28;20090;-47
2023/09/22 11:09:59;;;;;;;3.80;1.35;;;16.70;99.90;;;;;;5094577;28;20496;-49
2023/09/22 11:12:29;;;;;;;4.28;1.42;;;16.80;99.90;;;;;;5093463;28;20044;-48
2023/09/22 11:15:00;;;;;;;2.72;1.70;;;16.90;99.90;;;;;;5093418;28;20451;-48
2023/09/22 11:17:41;;;;;;;1.92;1.40;;;17.10;99.90;;;;;;5094618;28;20040;-48
2023/09/22 11:20:13;;;;;;;2.13;1.35;;;17.20;99.90;;;;;;5084739;28;20051;-49
2023/09/22 11:22:41;;;;;;;2.50;1.23;;;17.40;99.90;;;;;;5093015;28;20440;-48
2023/09/22 11:25:09;;;;;;;1.58;1.25;;;17.50;99.90;;;;;;5094193;28;20132;-47
2023/09/22 11:27:47;;;;;;;1.92;1.27;;;17.80;99.90;;;;;;5094166;28;20036;-50
2023/09/22 11:30:14;;;;;;;2.75;1.40;;;18.00;99.90;;;;;;5094483;28;20448;-48
2023/09/22 11:32:41;;;;;;;1.40;1.02;;;18.10;99.90;;;;;;5094200;28;20036;-48
2023/09/22 11:35:07;;;;;;;1.60;1.30;;;18.10;99.90;;;;;;5094416;28;20483;-47
2023/09/22 11:37:33;;;;;;;3.75;1.45;;;18.00;99.90;;;;;;5093248;28;20155;-50
2023/09/22 11:39:58;;;;;;;3.72;1.67;;;17.80;99.90;;;;;;5094092;28;20524;-49
2023/09/22 11:42:24;;;;;;;4.38;1.90;;;17.80;99.90;;;;;;5093993;28;20036;-50
2023/09/22 11:44:59;;;;;;;1.67;1.48;;;17.90;99.90;;;;;;5093714;28;20043;-50
2023/09/22 11:47:24;;;;;;;2.90;1.30;;;18.10;99.90;;;;;;5094202;28;20423;-48
2023/09/22 11:49:50;;;;;;;3.38;1.27;;;18.30;99.90;;;;;;5093557;28;20121;-47
2023/09/22 11:52:30;;;;;;;2.22;1.27;;;18.40;99.90;;;;;;5093012;28;20059;-48
2023/09/22 11:54:57;;;;;;;2.30;1.40;;;18.60;99.90;;;;;;5093744;28;20047;-48
2023/09/22 11:57:22;;;;;;;1.77;1.20;;;18.60;99.90;;;;;;5093829;28;20040;-47
2023/09/22 11:59:57;;;;;;;2.58;1.30;;;18.40;99.90;;;;;;5093757;28;20063;-49
2023/09/22 12:02:23;;;;;;;1.58;1.20;;;18.30;99.90;;;;;;5093562;28;20474;-50
2023/09/22 12:04:48;;;;;;;1.52;1.27;;;18.10;99.90;;;;;;5093492;28;20102;-49
2023/09/22 12:07:14;;;;;;;1.80;1.00;;;18.00;99.90;;;;;;5093575;28;20466;-47
2023/09/22 12:09:40;;;;;;;2.55;1.05;;;17.90;99.90;;;;;;5093427;28;20051;-53
2023/09/22 12:12:06;;;;;;;1.20;0.93;;;17.80;99.90;;;;;;5093031;28;20047;-51
2023/09/22 12:14:32;;;;;;;2.45;1.10;;;17.70;99.90;;;;;;5093314;28;20494;-48
2023/09/22 12:16:58;;;;;;;1.50;1.10;;;17.60;99.90;;;;;;5093321;28;20083;-47
2023/09/22 12:19:25;;;;;;;2.10;1.00;;;17.50;99.90;;;;;;5088270;28;20079;-49
2023/09/22 12:21:51;;;;;;;2.70;1.40;;;17.30;99.90;;;;;;5073026;28;20049;-49
2023/09/22 12:24:17;;;;;;;2.60;1.23;;;17.30;99.90;;;;;;5072855;28;20037;-50
2023/09/22 12:26:43;;;;;;;2.22;1.58;;;17.40;99.90;;;;;;5072710;28;20517;-50
2023/09/22 12:29:09;;;;;;;4.68;1.70;;;17.40;99.90;;;;;;5072936;28;20045;-54
2023/09/22 12:31:36;;;;;;;1.63;1.30;;;17.40;99.90;;;;;;5072940;28;20036;-51
2023/09/22 12:34:02;;;;;;;4.28;1.50;;;17.50;99.90;;;;;;5072779;28;20037;-49
2023/09/22 12:36:27;;;;;;;3.97;1.80;;;17.50;99.90;;;;;;5072889;28;20047;-51
2023/09/22 12:38:53;;;;;;;3.20;1.20;;;17.50;99.90;;;;;;5072583;28;20067;-47
2023/09/22 12:41:19;;;;;;;2.67;1.05;;;17.50;99.90;;;;;;5086428;28;20127;-49